Time;durP1;ratioP1;P1;durP2;ratioP2;P2;SDS_P1;SDS_P2;PMS_P1;PMS_P2;Temp;Humidity;BMP_temperature;BMP_pressure;BME280_temperature;BME280_humidity;BME280_pressure;Samples;Min_cycle;Max_cycle;Signal;HPM_P1;HPM_P2
2022/01/27 00:00:38;;;;;;;;;;;1.40;99.90;;;;;;4964451;29;19981;-86
2022/01/27 00:03:17;;;;;;;;;;;1.40;99.90;;;;;;4962615;28;19903;-87
2022/01/27 00:05:59;;;;;;;;;;;1.30;99.90;;;;;;4958645;29;19946;-88
2022/01/27 00:08:30;;;;;;;;;;;1.40;99.90;;;;;;4962965;28;19902;-86
2022/01/27 00:13:28;;;;;;;;;;;1.40;99.90;;;;;;4963934;28;20198;-86
2022/01/27 00:16:00;;;;;;;;;;;1.30;99.90;;;;;;4977290;28;19904;-90
2022/01/27 00:18:26;;;;;;;;;;;1.20;99.90;;;;;;4963995;28;19909;-95
2022/01/27 00:20:52;;;;;;;;;;;1.20;99.90;;;;;;4964013;29;19902;-86
2022/01/27 00:23:17;;;;;;;;;;;1.20;99.90;;;;;;4976648;28;19918;-88
2022/01/27 00:25:43;;;;;;;;;;;1.20;99.90;;;;;;4961641;28;19918;-87
2022/01/27 00:28:09;;;;;;;;;;;1.20;99.90;;;;;;4964152;28;19902;-86
2022/01/27 00:30:35;;;;;;;;;;;1.20;99.90;;;;;;4968178;28;19902;-87
2022/01/27 00:33:01;;;;;;;;;;;1.10;99.90;;;;;;4966346;28;20246;-94
2022/01/27 00:35:26;;;;;;;;;;;1.20;99.90;;;;;;4980219;28;19902;-86
2022/01/27 00:37:52;;;;;;;;;;;1.20;99.90;;;;;;4964582;28;19902;-86
2022/01/27 00:40:17;;;;;;;;;;;1.20;99.90;;;;;;4978753;28;19910;-89
2022/01/27 00:42:44;;;;;;;;;;;1.20;99.90;;;;;;4965608;28;19934;-87
2022/01/27 00:45:10;;;;;;;;;;;1.20;99.90;;;;;;4979539;28;20175;-92
2022/01/27 00:47:36;;;;;;;;;;;1.20;99.90;;;;;;4967721;28;19903;-91
2022/01/27 00:50:02;;;;;;;;;;;1.20;99.90;;;;;;4965284;29;19906;-86
2022/01/27 00:52:39;;;;;;;;;;;1.20;99.90;;;;;;4966063;29;19902;-86
2022/01/27 00:55:05;;;;;;;;;;;1.20;99.90;;;;;;4964847;28;19902;-86
2022/01/27 01:00:02;;;;;;;;;;;1.30;99.90;;;;;;4965679;29;20187;-86
2022/01/27 01:05:23;;;;;;;;;;;1.30;99.90;;;;;;4967233;28;19911;-86
2022/01/27 01:07:52;;;;;;;;;;;1.30;99.90;;;;;;4965600;28;19942;-89
2022/01/27 01:13:51;;;;;;;;;;;1.20;99.90;;;;;;4965121;28;19942;-86
2022/01/27 01:15:46;;;;;;;;;;;1.20;99.90;;;;;;4965485;28;20202;-94
2022/01/27 01:31:33;;;;;;;;;;;1.20;99.90;;;;;;4966881;29;20217;-86
2022/01/27 01:34:18;;;;;;;;;;;1.20;99.90;;;;;;4963396;29;19938;-87
2022/01/27 01:36:54;;;;;;;;;;;1.20;99.90;;;;;;4964925;29;19917;-90
2022/01/27 01:39:21;;;;;;;;;;;1.20;99.90;;;;;;4960492;28;19994;-86
2022/01/27 01:41:46;;;;;;;;;;;1.30;99.90;;;;;;4964926;28;19918;-85
2022/01/27 01:44:12;;;;;;;;;;;1.30;99.90;;;;;;4964934;29;19922;-87
2022/01/27 01:46:38;;;;;;;;;;;1.30;99.90;;;;;;4979060;28;19949;-86
2022/01/27 01:49:04;;;;;;;;;;;1.20;99.90;;;;;;4980528;28;19902;-86
2022/01/27 01:51:32;;;;;;;;;;;1.20;99.90;;;;;;4978314;28;19977;-92
2022/01/27 01:53:58;;;;;;;;;;;1.10;99.90;;;;;;4980861;28;19903;-86
2022/01/27 01:56:24;;;;;;;;;;;1.00;99.90;;;;;;4966221;28;19907;-87
2022/01/27 01:58:50;;;;;;;;;;;1.10;99.90;;;;;;4963492;28;19941;-86
2022/01/27 02:01:16;;;;;;;;;;;1.00;99.90;;;;;;4964836;28;19923;-87
2022/01/27 02:03:41;;;;;;;;;;;1.10;99.90;;;;;;4965800;28;19926;-88
2022/01/27 02:06:11;;;;;;;;;;;1.00;99.90;;;;;;4962979;28;19911;-89
2022/01/27 02:08:47;;;;;;;;;;;0.90;99.90;;;;;;4961990;28;19906;-94
2022/01/27 02:19:28;;;;;;;;;;;1.00;99.90;;;;;;4965939;29;19910;-86
2022/01/27 02:21:55;;;;;;;;;;;1.10;99.90;;;;;;4963884;29;19973;-86
2022/01/27 02:24:22;;;;;;;;;;;1.10;99.90;;;;;;4962979;29;19902;-86
2022/01/27 02:26:49;;;;;;;;;;;1.00;99.90;;;;;;4963125;29;19945;-96
2022/01/27 02:29:16;;;;;;;;;;;1.00;99.90;;;;;;4964814;29;19922;-94
2022/01/27 02:31:42;;;;;;;;;;;0.90;99.90;;;;;;4965645;28;19906;-94
2022/01/27 02:34:08;;;;;;;;;;;0.90;99.90;;;;;;4965095;28;19940;-87
2022/01/27 02:36:33;;;;;;;;;;;0.90;99.90;;;;;;4964644;29;19924;-95
2022/01/27 02:39:00;;;;;;;;;;;0.90;99.90;;;;;;4979818;28;19925;-86
2022/01/27 02:41:26;;;;;;;;;;;0.90;99.90;;;;;;4964704;28;19973;-86
2022/01/27 02:43:54;;;;;;;;;;;0.90;99.90;;;;;;4962083;29;20050;-86
2022/01/27 02:46:21;;;;;;;;;;;0.70;99.90;;;;;;4978161;28;20118;-94
2022/01/27 02:48:46;;;;;;;;;;;0.70;99.90;;;;;;4965235;28;19950;-89
2022/01/27 02:51:12;;;;;;;;;;;0.70;99.90;;;;;;4964495;28;20124;-90
2022/01/27 02:53:37;;;;;;;;;;;0.70;99.90;;;;;;4975545;28;19906;-86
2022/01/27 02:56:03;;;;;;;;;;;0.70;99.90;;;;;;4963122;28;20198;-86
2022/01/27 02:58:29;;;;;;;;;;;0.70;99.90;;;;;;4978034;28;19906;-86
2022/01/27 03:00:54;;;;;;;;;;;0.60;99.90;;;;;;4964589;28;19902;-94
2022/01/27 03:03:20;;;;;;;;;;;0.60;99.90;;;;;;4964673;28;19934;-86
2022/01/27 03:05:45;;;;;;;;;;;0.70;99.90;;;;;;4961183;28;20324;-86
2022/01/27 03:08:11;;;;;;;;;;;0.70;99.90;;;;;;4963063;28;19910;-86
2022/01/27 03:10:43;;;;;;;;;;;0.70;99.90;;;;;;4980630;28;19941;-86
2022/01/27 03:13:09;;;;;;;;;;;0.70;99.90;;;;;;4963197;28;19909;-87
2022/01/27 03:15:34;;;;;;;;;;;0.70;99.90;;;;;;4961585;29;19902;-86
2022/01/27 03:18:00;;;;;;;;;;;0.60;99.90;;;;;;4964400;29;19903;-92
2022/01/27 03:20:32;;;;;;;;;;;0.60;99.90;;;;;;4963739;28;19902;-86
2022/01/27 03:22:58;;;;;;;;;;;0.60;99.90;;;;;;4977970;28;19906;-84
2022/01/27 03:25:23;;;;;;;;;;;0.60;99.90;;;;;;4965429;28;19945;-87
2022/01/27 03:27:49;;;;;;;;;;;0.60;99.90;;;;;;4965288;29;19902;-96
2022/01/27 03:30:17;;;;;;;;;;;0.60;99.90;;;;;;4965299;29;20241;-88
2022/01/27 03:32:42;;;;;;;;;;;0.70;99.90;;;;;;4964971;29;19906;-91
2022/01/27 03:35:08;;;;;;;;;;;0.70;99.90;;;;;;4963611;29;20308;-88
2022/01/27 03:37:33;;;;;;;;;;;0.70;99.90;;;;;;4965528;29;19949;-89
2022/01/27 03:39:59;;;;;;;;;;;0.70;99.90;;;;;;4965798;29;19902;-88
2022/01/27 03:42:25;;;;;;;;;;;0.70;99.90;;;;;;4981447;28;19918;-87
2022/01/27 03:44:51;;;;;;;;;;;0.80;99.90;;;;;;4966233;28;19957;-86
2022/01/27 03:47:16;;;;;;;;;;;0.90;99.90;;;;;;4967372;28;19906;-87
2022/01/27 03:49:42;;;;;;;;;;;0.90;99.90;;;;;;4968313;29;19902;-95
2022/01/27 03:52:07;;;;;;;;;;;0.90;99.90;;;;;;4968899;28;20215;-87
2022/01/27 03:54:33;;;;;;;;;;;0.80;99.90;;;;;;4964867;28;20315;-87
2022/01/27 03:56:59;;;;;;;;;;;0.80;99.90;;;;;;4966488;29;19961;-84
2022/01/27 03:59:26;;;;;;;;;;;0.80;99.90;;;;;;4980157;28;19914;-85
2022/01/27 04:01:52;;;;;;;;;;;0.90;99.90;;;;;;4965343;28;19904;-86
2022/01/27 04:04:18;;;;;;;;;;;0.80;99.90;;;;;;4976478;28;19902;-84
2022/01/27 04:06:44;;;;;;;;;;;0.70;99.90;;;;;;4966020;28;19945;-93
2022/01/27 04:09:10;;;;;;;;;;;0.60;99.90;;;;;;4964411;28;20196;-85
2022/01/27 04:11:37;;;;;;;;;;;0.60;99.90;;;;;;4962691;29;20209;-85
2022/01/27 04:14:02;;;;;;;;;;;0.60;99.90;;;;;;4980838;28;19903;-87
2022/01/27 04:16:28;;;;;;;;;;;0.60;99.90;;;;;;4980260;28;20349;-93
2022/01/27 04:18:53;;;;;;;;;;;0.70;99.90;;;;;;4965445;28;19902;-85
2022/01/27 04:21:19;;;;;;;;;;;0.60;99.90;;;;;;4979964;28;20187;-87
2022/01/27 04:23:45;;;;;;;;;;;0.60;99.90;;;;;;4979064;28;20079;-85
2022/01/27 04:26:13;;;;;;;;;;;0.50;99.90;;;;;;4977464;28;20114;-85
2022/01/27 04:28:40;;;;;;;;;;;0.60;99.90;;;;;;4974499;28;19906;-87
2022/01/27 04:31:08;;;;;;;;;;;0.60;99.90;;;;;;4964002;28;19941;-84
2022/01/27 04:33:35;;;;;;;;;;;0.70;99.90;;;;;;4963878;29;19906;-91
2022/01/27 04:36:06;;;;;;;;;;;0.70;99.90;;;;;;4976783;28;19902;-85
2022/01/27 04:46:36;;;;;;;;;;;0.50;99.90;;;;;;4974361;28;19918;-87
2022/01/27 04:49:05;;;;;;;;;;;0.60;99.90;;;;;;4973762;28;19918;-85
2022/01/27 04:51:31;;;;;;;;;;;0.50;99.90;;;;;;4971606;28;19957;-94
2022/01/27 04:54:09;;;;;;;;;;;0.50;99.90;;;;;;4961694;28;19907;-87
2022/01/27 04:56:38;;;;;;;;;;;0.50;99.90;;;;;;4962931;28;19925;-87
2022/01/27 04:59:09;;;;;;;;;;;0.50;99.90;;;;;;4960968;28;19906;-86
2022/01/27 05:01:43;;;;;;;;;;;0.50;99.90;;;;;;4974418;28;19906;-87
2022/01/27 05:04:11;;;;;;;;;;;0.60;99.90;;;;;;4975947;28;19926;-85
2022/01/27 05:06:36;;;;;;;;;;;0.70;99.90;;;;;;4975485;28;19911;-90
2022/01/27 05:09:02;;;;;;;;;;;0.50;99.90;;;;;;4963253;28;20102;-85
2022/01/27 05:11:35;;;;;;;;;;;0.60;99.90;;;;;;4977641;28;20166;-86
2022/01/27 05:16:29;;;;;;;;;;;0.50;99.90;;;;;;4962787;28;19906;-95
2022/01/27 05:18:55;;;;;;;;;;;0.30;99.90;;;;;;4981849;28;19906;-86
2022/01/27 05:21:21;;;;;;;;;;;0.10;99.90;;;;;;4967104;28;19906;-85
2022/01/27 05:23:46;;;;;;;;;;;0.10;99.90;;;;;;4966638;28;19906;-85
2022/01/27 05:26:12;;;;;;;;;;;0.20;99.90;;;;;;4980623;28;19910;-87
2022/01/27 05:28:38;;;;;;;;;;;0.20;99.90;;;;;;4966189;28;20131;-86
2022/01/27 05:31:05;;;;;;;;;;;0.10;99.90;;;;;;4965618;28;19948;-94
2022/01/27 05:33:31;;;;;;;;;;;0.10;99.90;;;;;;4967043;28;19902;-86
2022/01/27 05:35:56;;;;;;;;;;;0.20;99.90;;;;;;4965543;28;20102;-94
2022/01/27 05:38:22;;;;;;;;;;;0.30;99.90;;;;;;4981457;28;19964;-94
2022/01/27 05:40:48;;;;;;;;;;;0.30;99.90;;;;;;4967250;28;19902;-94
2022/01/27 05:43:13;;;;;;;;;;;0.30;99.90;;;;;;4966707;28;20214;-86
2022/01/27 05:45:39;;;;;;;;;;;0.30;99.90;;;;;;4963495;28;20294;-88
2022/01/27 05:48:04;;;;;;;;;;;0.30;99.90;;;;;;4966027;29;19902;-86
2022/01/27 05:50:30;;;;;;;;;;;0.30;99.90;;;;;;4963800;28;20155;-85
2022/01/27 05:52:56;;;;;;;;;;;0.30;99.90;;;;;;4964349;29;19965;-86
2022/01/27 05:55:21;;;;;;;;;;;0.30;99.90;;;;;;4965704;28;19977;-86
2022/01/27 05:57:47;;;;;;;;;;;0.40;99.90;;;;;;4981371;28;19903;-86
2022/01/27 06:00:12;;;;;;;;;;;0.40;99.90;;;;;;4980526;28;19930;-85
2022/01/27 06:02:38;;;;;;;;;;;0.40;99.90;;;;;;4978936;28;19952;-86
2022/01/27 06:05:04;;;;;;;;;;;0.40;99.90;;;;;;4978532;28;19910;-85
2022/01/27 06:07:30;;;;;;;;;;;0.40;99.90;;;;;;4981279;28;20094;-85
2022/01/27 06:09:56;;;;;;;;;;;0.50;99.90;;;;;;4981120;28;20257;-93
2022/01/27 06:12:22;;;;;;;;;;;0.50;99.90;;;;;;4981146;28;19977;-84
2022/01/27 06:14:47;;;;;;;;;;;0.50;99.90;;;;;;4963557;28;19925;-86
2022/01/27 06:17:13;;;;;;;;;;;0.40;99.90;;;;;;4964276;28;19902;-95
2022/01/27 06:19:38;;;;;;;;;;;0.40;99.90;;;;;;4965905;28;20227;-85
2022/01/27 06:22:11;;;;;;;;;;;0.40;99.90;;;;;;4979272;28;19903;-85
2022/01/27 06:24:43;;;;;;;;;;;0.50;99.90;;;;;;4965577;28;19957;-92
2022/01/27 06:27:09;;;;;;;;;;;0.40;99.90;;;;;;4979420;28;19917;-85
2022/01/27 06:29:35;;;;;;;;;;;0.30;99.90;;;;;;4965242;28;19902;-91
2022/01/27 06:32:01;;;;;;;;;;;0.30;99.90;;;;;;4966177;28;19941;-85
2022/01/27 06:34:26;;;;;;;;;;;0.30;99.90;;;;;;4965077;29;20190;-86
2022/01/27 06:36:52;;;;;;;;;;;0.40;99.90;;;;;;4964665;28;19909;-91
2022/01/27 06:39:18;;;;;;;;;;;0.40;99.90;;;;;;4965093;28;19977;-85
2022/01/27 06:41:44;;;;;;;;;;;0.50;99.90;;;;;;4963305;28;19902;-85
2022/01/27 06:44:10;;;;;;;;;;;0.50;99.90;;;;;;4963806;28;19921;-84
2022/01/27 06:46:36;;;;;;;;;;;0.40;99.90;;;;;;4964735;28;20122;-85
2022/01/27 06:49:04;;;;;;;;;;;0.30;99.90;;;;;;4964419;28;20407;-85
2022/01/27 06:51:30;;;;;;;;;;;0.40;99.90;;;;;;4964801;28;20185;-85
2022/01/27 06:53:57;;;;;;;;;;;0.50;99.90;;;;;;4964397;28;19902;-84
2022/01/27 06:56:23;;;;;;;;;;;0.40;99.90;;;;;;4963934;28;19902;-85
2022/01/27 06:58:48;;;;;;;;;;;0.40;99.90;;;;;;4964534;28;19902;-85
2022/01/27 07:01:14;;;;;;;;;;;0.40;99.90;;;;;;4961215;28;19909;-86
2022/01/27 07:03:39;;;;;;;;;;;0.30;99.90;;;;;;4961604;28;19909;-88
2022/01/27 07:06:05;;;;;;;;;;;0.30;99.90;;;;;;4964835;28;19914;-85
2022/01/27 07:08:31;;;;;;;;;;;0.40;99.90;;;;;;4963432;28;19974;-86
2022/01/27 07:10:56;;;;;;;;;;;0.40;99.90;;;;;;4960642;28;19913;-85
2022/01/27 07:13:22;;;;;;;;;;;0.30;99.90;;;;;;4960003;28;19906;-86
2022/01/27 07:15:47;;;;;;;;;;;0.30;99.90;;;;;;4963103;28;19969;-86
2022/01/27 07:18:13;;;;;;;;;;;0.40;99.90;;;;;;4959489;28;19908;-85
2022/01/27 07:20:39;;;;;;;;;;;0.40;99.90;;;;;;4955379;28;20252;-86
2022/01/27 07:23:06;;;;;;;;;;;0.40;99.90;;;;;;4959960;28;20287;-86
2022/01/27 07:25:32;;;;;;;;;;;0.40;99.90;;;;;;4959928;28;20016;-86
2022/01/27 07:27:57;;;;;;;;;;;0.40;99.90;;;;;;4961792;28;19906;-85
2022/01/27 07:30:23;;;;;;;;;;;0.30;99.90;;;;;;4956061;28;19933;-88
2022/01/27 07:32:48;;;;;;;;;;;0.30;99.90;;;;;;4952199;28;19913;-89
2022/01/27 07:35:14;;;;;;;;;;;0.30;99.90;;;;;;4951794;28;19914;-88
2022/01/27 07:37:42;;;;;;;;;;;0.30;99.90;;;;;;4952753;28;19965;-88
2022/01/27 07:40:08;;;;;;;;;;;0.30;99.90;;;;;;4953196;28;19907;-89
2022/01/27 07:42:33;;;;;;;;;;;0.30;99.90;;;;;;4952742;28;19914;-89
2022/01/27 07:44:59;;;;;;;;;;;0.30;99.90;;;;;;4952836;28;19906;-88
2022/01/27 07:47:24;;;;;;;;;;;0.20;99.90;;;;;;4952875;28;19906;-88
2022/01/27 07:49:50;;;;;;;;;;;0.20;99.90;;;;;;4951862;28;19906;-87
2022/01/27 07:52:18;;;;;;;;;;;0.20;99.90;;;;;;4953046;28;19957;-89
2022/01/27 07:54:43;;;;;;;;;;;0.20;99.90;;;;;;4951460;28;19913;-88
2022/01/27 07:57:09;;;;;;;;;;;0.20;99.90;;;;;;4951691;28;19906;-88
2022/01/27 07:59:34;;;;;;;;;;;0.10;99.90;;;;;;4952742;28;19906;-87
2022/01/27 08:02:01;;;;;;;;;;;0.20;99.90;;;;;;4952696;28;19911;-89
2022/01/27 08:04:27;;;;;;;;;;;0.30;99.90;;;;;;4952865;28;19957;-88
2022/01/27 08:06:52;;;;;;;;;;;0.40;99.90;;;;;;4952703;28;20480;-88
2022/01/27 08:09:18;;;;;;;;;;;0.50;99.90;;;;;;4952409;28;19918;-88
2022/01/27 08:11:44;;;;;;;;;;;0.60;99.90;;;;;;4952849;28;19949;-88
2022/01/27 08:14:10;;;;;;;;;;;0.50;99.90;;;;;;4951385;28;19907;-89
2022/01/27 08:16:35;;;;;;;;;;;0.60;99.90;;;;;;4951453;28;19915;-88
2022/01/27 08:19:01;;;;;;;;;;;0.60;99.90;;;;;;4952155;28;19915;-88
2022/01/27 08:21:27;;;;;;;;;;;0.70;99.90;;;;;;4952943;28;20296;-93
2022/01/27 08:23:54;;;;;;;;;;;0.80;99.90;;;;;;4952265;28;20415;-88
2022/01/27 08:26:41;;;;;;;;;;;0.80;99.90;;;;;;4952527;28;20397;-89
2022/01/27 08:29:31;;;;;;;;;;;0.80;99.90;;;;;;4953554;28;19906;-88
2022/01/27 08:34:29;;;;;;;;;;;0.70;99.90;;;;;;4952930;28;19912;-91
2022/01/27 08:36:56;;;;;;;;;;;0.60;99.90;;;;;;4953265;28;19907;-89
2022/01/27 08:39:22;;;;;;;;;;;0.50;99.90;;;;;;4952630;28;19997;-89
2022/01/27 08:41:48;;;;;;;;;;;0.50;99.90;;;;;;4953550;28;19949;-89
2022/01/27 08:44:13;;;;;;;;;;;0.40;99.90;;;;;;4953545;28;19989;-88
2022/01/27 08:46:39;;;;;;;;;;;0.50;99.90;;;;;;4953323;28;19961;-89
2022/01/27 08:49:05;;;;;;;;;;;0.50;99.90;;;;;;4953659;28;19918;-89
2022/01/27 08:51:32;;;;;;;;;;;0.40;99.90;;;;;;4956333;28;19949;-88
2022/01/27 08:53:57;;;;;;;;;;;0.50;99.90;;;;;;4956684;28;19933;-91
2022/01/27 08:56:23;;;;;;;;;;;0.60;99.90;;;;;;4956991;28;19910;-88
2022/01/27 08:58:49;;;;;;;;;;;0.60;99.90;;;;;;4956535;28;19994;-90
2022/01/27 09:01:16;;;;;;;;;;;0.60;99.90;;;;;;4955241;28;19917;-88
2022/01/27 09:03:41;;;;;;;;;;;0.60;99.90;;;;;;4960813;28;20440;-88
2022/01/27 09:06:07;;;;;;;;;;;0.70;99.90;;;;;;4972035;28;19950;-88
2022/01/27 09:08:33;;;;;;;;;;;0.60;99.90;;;;;;4955722;28;19906;-88
2022/01/27 09:10:59;;;;;;;;;;;0.60;99.90;;;;;;4957319;28;20001;-88
2022/01/27 09:13:25;;;;;;;;;;;0.70;99.90;;;;;;4956449;28;19913;-89
2022/01/27 09:15:51;;;;;;;;;;;0.80;99.90;;;;;;4955280;28;19906;-90
2022/01/27 09:18:17;;;;;;;;;;;0.70;99.90;;;;;;4971195;28;19912;-90
2022/01/27 09:20:43;;;;;;;;;;;0.60;99.90;;;;;;4956505;28;19979;-88
2022/01/27 09:23:13;;;;;;;;;;;0.70;99.90;;;;;;4957057;28;19907;-89
2022/01/27 09:25:43;;;;;;;;;;;0.70;99.90;;;;;;4955961;28;19949;-90
2022/01/27 09:28:09;;;;;;;;;;;0.80;99.90;;;;;;4956031;28;19907;-89
2022/01/27 09:30:35;;;;;;;;;;;0.70;99.90;;;;;;4955749;28;19910;-89
2022/01/27 09:33:01;;;;;;;;;;;0.80;99.90;;;;;;4954672;28;19913;-89
2022/01/27 09:35:28;;;;;;;;;;;0.80;99.90;;;;;;4955903;28;19969;-89
2022/01/27 09:37:54;;;;;;;;;;;0.80;99.90;;;;;;4954177;28;19973;-91
2022/01/27 09:40:19;;;;;;;;;;;0.90;99.90;;;;;;4955614;28;20361;-90
2022/01/27 09:42:52;;;;;;;;;;;1.00;99.90;;;;;;4954823;28;19910;-89
2022/01/27 09:45:17;;;;;;;;;;;1.00;99.90;;;;;;4954389;28;19915;-89
2022/01/27 09:47:46;;;;;;;;;;;1.00;99.90;;;;;;4953970;28;20442;-90
2022/01/27 09:52:41;;;;;;;;;;;1.10;99.90;;;;;;4956756;28;19907;-88
2022/01/27 09:55:07;;;;;;;;;;;1.20;99.90;;;;;;4956346;28;19933;-89
2022/01/27 09:57:33;;;;;;;;;;;1.30;99.90;;;;;;4955903;28;20001;-89
2022/01/27 09:59:58;;;;;;;;;;;1.40;99.90;;;;;;4970517;28;19907;-90
2022/01/27 10:02:27;;;;;;;;;;;1.40;99.90;;;;;;4954719;28;20025;-89
2022/01/27 10:04:57;;;;;;;;;;;1.40;99.90;;;;;;4954236;28;19914;-90
2022/01/27 10:07:31;;;;;;;;;;;1.50;99.90;;;;;;4954946;28;20414;-88
2022/01/27 10:09:57;;;;;;;;;;;1.30;99.90;;;;;;4953969;28;19907;-90
2022/01/27 10:12:24;;;;;;;;;;;1.00;99.90;;;;;;4954080;28;19907;-89
2022/01/27 10:14:56;;;;;;;;;;;1.00;99.90;;;;;;4954094;29;19907;-90
2022/01/27 10:17:22;;;;;;;;;;;1.10;99.90;;;;;;4955913;28;19911;-88
2022/01/27 10:19:54;;;;;;;;;;;1.10;99.90;;;;;;4954479;28;20267;-89
2022/01/27 10:22:21;;;;;;;;;;;1.20;99.90;;;;;;4954794;28;19906;-89
2022/01/27 10:24:58;;;;;;;;;;;1.30;99.90;;;;;;4954790;28;19929;-89
2022/01/27 10:27:32;;;;;;;;;;;1.30;99.90;;;;;;4954897;28;19914;-89
2022/01/27 10:32:44;;;;;;;;;;;1.40;99.90;;;;;;4955235;28;19918;-88
2022/01/27 10:35:12;;;;;;;;;;;1.40;99.90;;;;;;4954935;28;19906;-90
2022/01/27 10:37:53;;;;;;;;;;;1.50;99.90;;;;;;4954729;28;19948;-89
2022/01/27 10:40:24;;;;;;;;;;;1.50;99.90;;;;;;4955453;28;20414;-89
2022/01/27 10:43:05;;;;;;;;;;;1.50;99.90;;;;;;4954874;28;20434;-89
2022/01/27 10:45:33;;;;;;;;;;;1.50;99.90;;;;;;4953435;28;19914;-89
2022/01/27 10:48:24;;;;;;;;;;;1.60;99.90;;;;;;4955186;28;19906;-91
2022/01/27 10:53:52;;;;;;;;;;;1.60;99.90;;;;;;4954144;28;19911;-88
2022/01/27 10:56:20;;;;;;;;;;;1.70;99.90;;;;;;4954066;28;19910;-89
2022/01/27 10:58:46;;;;;;;;;;;1.70;99.90;;;;;;4961637;28;19906;-89
2022/01/27 11:01:20;;;;;;;;;;;1.80;99.90;;;;;;4953897;28;20271;-88
2022/01/27 11:03:48;;;;;;;;;;;1.80;99.90;;;;;;4954735;28;19941;-89
2022/01/27 11:06:14;;;;;;;;;;;1.80;99.90;;;;;;4954748;28;19914;-90
2022/01/27 11:08:42;;;;;;;;;;;1.80;99.90;;;;;;4954415;28;19928;-89
2022/01/27 11:11:08;;;;;;;;;;;1.90;99.90;;;;;;4954152;28;19914;-89
2022/01/27 11:13:35;;;;;;;;;;;2.10;99.90;;;;;;4952883;28;20370;-89
2022/01/27 11:16:03;;;;;;;;;;;2.10;99.90;;;;;;4953413;28;19913;-89
2022/01/27 11:18:30;;;;;;;;;;;2.00;99.90;;;;;;4954534;28;19913;-91
2022/01/27 11:21:07;;;;;;;;;;;2.20;99.90;;;;;;4955831;28;20378;-89
2022/01/27 11:26:09;;;;;;;;;;;2.50;99.90;;;;;;4954417;28;20042;-90
2022/01/27 11:28:36;;;;;;;;;;;2.40;99.90;;;;;;4953284;28;20361;-90
2022/01/27 11:31:25;;;;;;;;;;;2.50;99.90;;;;;;4953563;28;19977;-90
2022/01/27 11:34:04;;;;;;;;;;;2.60;99.90;;;;;;4953986;28;20138;-89
2022/01/27 11:36:30;;;;;;;;;;;2.50;99.90;;;;;;4956256;28;19966;-91
2022/01/27 11:38:56;;;;;;;;;;;2.50;99.90;;;;;;4942241;28;19906;-90
2022/01/27 11:41:35;;;;;;;;;;;2.40;99.90;;;;;;4987655;28;20371;-92
2022/01/27 11:44:20;;;;;;;;;;;2.30;99.90;;;;;;4972597;28;20038;-89
2022/01/27 11:47:04;;;;;;;;;;;2.30;99.90;;;;;;4972494;28;20294;-89
2022/01/27 11:49:55;;;;;;;;;;;2.20;99.90;;;;;;4987004;28;20383;-89
2022/01/27 11:52:28;;;;;;;;;;;2.30;99.90;;;;;;4969052;28;19996;-90
2022/01/27 11:55:16;;;;;;;;;;;2.20;99.90;;;;;;4952939;28;20005;-88
2022/01/27 11:57:43;;;;;;;;;;;2.30;99.90;;;;;;4952865;28;19906;-88
2022/01/27 12:00:11;;;;;;;;;;;2.30;99.90;;;;;;4954405;28;19929;-90
2022/01/27 12:03:02;;;;;;;;;;;2.30;99.90;;;;;;4953771;28;19906;-90
2022/01/27 12:05:28;;;;;;;;;;;2.30;99.90;;;;;;4952578;28;19915;-90
2022/01/27 12:08:20;;;;;;;;;;;2.20;99.90;;;;;;4967906;28;20009;-89
2022/01/27 12:10:49;;;;;;;;;;;2.30;99.90;;;;;;4952080;28;20149;-89
2022/01/27 12:13:37;;;;;;;;;;;2.40;99.90;;;;;;4968110;28;19929;-88
2022/01/27 12:18:56;;;;;;;;;;;2.10;99.90;;;;;;4953463;29;19937;-89
2022/01/27 12:21:44;;;;;;;;;;;2.30;99.90;;;;;;4953623;28;19906;-89
2022/01/27 12:24:13;;;;;;;;;;;2.40;99.90;;;;;;4966751;28;19913;-89
2022/01/27 12:26:48;;;;;;;;;;;2.40;99.90;;;;;;4952462;28;19914;-89
2022/01/27 12:29:30;;;;;;;;;;;2.40;99.90;;;;;;4952563;28;19912;-89
2022/01/27 12:31:57;;;;;;;;;;;2.40;99.90;;;;;;4953064;28;20391;-88
2022/01/27 12:34:23;;;;;;;;;;;2.50;99.90;;;;;;4952611;29;19911;-89
2022/01/27 12:37:01;;;;;;;;;;;2.60;99.90;;;;;;4952831;28;19906;-92
2022/01/27 12:39:31;;;;;;;;;;;2.60;99.90;;;;;;4952443;29;20263;-88
2022/01/27 12:41:58;;;;;;;;;;;2.70;99.90;;;;;;4952961;28;19906;-88
2022/01/27 12:44:26;;;;;;;;;;;2.70;99.90;;;;;;4968184;28;19923;-88
2022/01/27 12:47:15;;;;;;;;;;;2.70;99.90;;;;;;4953645;28;19925;-88
2022/01/27 12:49:51;;;;;;;;;;;2.70;99.90;;;;;;4952600;29;19979;-89
2022/01/27 12:52:19;;;;;;;;;;;2.60;99.90;;;;;;4953394;28;20002;-88
2022/01/27 12:54:49;;;;;;;;;;;2.70;99.90;;;;;;4952482;29;20005;-89
2022/01/27 12:57:21;;;;;;;;;;;2.60;99.90;;;;;;4952370;29;19953;-88
2022/01/27 12:59:50;;;;;;;;;;;2.60;99.90;;;;;;4952635;28;19914;-89
2022/01/27 13:02:17;;;;;;;;;;;2.70;99.90;;;;;;4967232;28;19929;-90
2022/01/27 13:04:43;;;;;;;;;;;2.80;99.90;;;;;;4952590;28;19945;-90
2022/01/27 13:07:09;;;;;;;;;;;2.80;99.90;;;;;;4966811;28;19983;-88
2022/01/27 13:09:35;;;;;;;;;;;2.80;99.90;;;;;;4967110;28;20308;-89
2022/01/27 13:12:11;;;;;;;;;;;2.70;99.90;;;;;;4952156;28;19912;-89
2022/01/27 13:15:03;;;;;;;;;;;2.50;99.90;;;;;;4952458;29;19950;-89
2022/01/27 13:17:36;;;;;;;;;;;2.40;99.90;;;;;;4952183;28;19914;-89
2022/01/27 13:20:09;;;;;;;;;;;2.30;99.90;;;;;;4967257;28;19989;-89
2022/01/27 13:22:53;;;;;;;;;;;2.40;99.90;;;;;;4951940;28;20392;-89
2022/01/27 13:25:20;;;;;;;;;;;2.50;99.90;;;;;;4966857;28;20382;-89
2022/01/27 13:28:02;;;;;;;;;;;2.60;99.90;;;;;;4966692;28;19914;-89
2022/01/27 13:30:28;;;;;;;;;;;2.70;99.90;;;;;;4966895;28;19910;-89
2022/01/27 13:32:54;;;;;;;;;;;2.80;99.90;;;;;;4952060;28;19906;-88
2022/01/27 13:35:19;;;;;;;;;;;2.80;99.90;;;;;;4952257;28;19975;-88
2022/01/27 13:37:45;;;;;;;;;;;2.90;99.90;;;;;;4955130;29;19978;-89
2022/01/27 13:42:56;;;;;;;;;;;2.90;99.90;;;;;;4955965;29;20006;-88
2022/01/27 13:45:22;;;;;;;;;;;3.10;99.90;;;;;;4955378;28;19914;-88
2022/01/27 13:47:48;;;;;;;;;;;3.00;99.90;;;;;;4955569;28;19969;-89
2022/01/27 13:50:15;;;;;;;;;;;2.90;99.90;;;;;;4955126;28;20370;-89
2022/01/27 13:52:46;;;;;;;;;;;2.90;99.90;;;;;;4954962;29;19914;-88
2022/01/27 13:55:14;;;;;;;;;;;2.70;99.90;;;;;;4955209;28;19987;-88
2022/01/27 13:57:53;;;;;;;;;;;2.60;99.90;;;;;;4970201;28;20302;-89
2022/01/27 14:00:27;;;;;;;;;;;2.60;99.90;;;;;;4955346;28;20451;-88
2022/01/27 14:03:06;;;;;;;;;;;2.70;99.90;;;;;;4955537;28;19906;-90
2022/01/27 14:05:32;;;;;;;;;;;2.80;99.90;;;;;;4970008;28;20326;-90
2022/01/27 14:07:58;;;;;;;;;;;2.80;99.90;;;;;;4954866;28;19915;-89
2022/01/27 14:10:27;;;;;;;;;;;2.90;99.90;;;;;;4955252;28;20454;-90
2022/01/27 14:13:02;;;;;;;;;;;3.00;99.90;;;;;;4955072;29;19906;-89
2022/01/27 14:15:28;;;;;;;;;;;3.10;99.90;;;;;;4954668;29;19977;-89
2022/01/27 14:17:58;;;;;;;;;;;3.10;99.90;;;;;;4954945;28;20094;-88
2022/01/27 14:20:24;;;;;;;;;;;3.10;99.90;;;;;;4954772;29;19914;-88
2022/01/27 14:23:01;;;;;;;;;;;3.20;99.90;;;;;;4954819;28;19961;-91
2022/01/27 14:25:35;;;;;;;;;;;3.30;99.90;;;;;;4954722;29;20423;-88
2022/01/27 14:28:01;;;;;;;;;;;3.40;99.90;;;;;;4955095;28;20318;-89
2022/01/27 14:30:26;;;;;;;;;;;3.70;99.90;;;;;;4954925;28;19906;-90
2022/01/27 14:32:52;;;;;;;;;;;3.80;99.90;;;;;;4954327;28;19906;-89
2022/01/27 14:35:19;;;;;;;;;;;3.90;99.90;;;;;;4954709;28;19910;-88
2022/01/27 14:37:44;;;;;;;;;;;4.00;99.90;;;;;;4969020;28;20001;-90
2022/01/27 14:40:12;;;;;;;;;;;4.10;99.90;;;;;;4969410;28;20335;-90
2022/01/27 14:42:39;;;;;;;;;;;4.10;99.90;;;;;;4954653;28;19922;-89
2022/01/27 14:45:07;;;;;;;;;;;4.10;99.90;;;;;;4969335;28;19965;-89
2022/01/27 14:47:32;;;;;;;;;;;4.30;99.90;;;;;;4970800;28;19953;-89
2022/01/27 14:49:58;;;;;;;;;;;4.40;99.90;;;;;;4969428;28;19936;-89
2022/01/27 14:52:28;;;;;;;;;;;4.60;99.90;;;;;;4968950;28;19915;-89
2022/01/27 14:54:54;;;;;;;;;;;4.70;99.90;;;;;;4969002;28;20272;-89
2022/01/27 14:57:20;;;;;;;;;;;4.80;99.90;;;;;;4954594;28;19906;-89
2022/01/27 14:59:46;;;;;;;;;;;4.90;99.90;;;;;;4969393;28;20236;-88
2022/01/27 15:02:11;;;;;;;;;;;4.80;99.90;;;;;;4954459;28;20422;-88
2022/01/27 15:04:37;;;;;;;;;;;4.80;99.90;;;;;;4954105;28;19913;-89
2022/01/27 15:07:04;;;;;;;;;;;4.70;99.90;;;;;;4953691;28;19921;-90
2022/01/27 15:09:30;;;;;;;;;;;4.70;99.90;;;;;;4954028;29;19906;-89
2022/01/27 15:11:55;;;;;;;;;;;4.70;99.90;;;;;;4968707;28;19973;-89
2022/01/27 15:19:49;;;;;;;;;;;4.80;99.90;;;;;;4953698;29;19943;-88
2022/01/27 15:22:15;;;;;;;;;;;4.80;99.90;;;;;;4968825;28;19907;-89
2022/01/27 15:24:43;;;;;;;;;;;4.80;99.90;;;;;;4953857;28;19907;-88
2022/01/27 15:27:09;;;;;;;;;;;4.80;99.90;;;;;;4953801;28;19918;-89
2022/01/27 15:29:35;;;;;;;;;;;4.80;99.90;;;;;;4968728;28;19917;-89
2022/01/27 15:32:03;;;;;;;;;;;4.80;99.90;;;;;;4968462;28;20249;-89
2022/01/27 15:34:29;;;;;;;;;;;4.90;99.90;;;;;;4953614;28;20155;-88
2022/01/27 15:36:55;;;;;;;;;;;4.90;99.90;;;;;;4967988;28;20367;-89
2022/01/27 15:39:22;;;;;;;;;;;4.90;99.90;;;;;;4953900;28;19906;-89
2022/01/27 15:41:50;;;;;;;;;;;4.90;99.90;;;;;;4953666;28;19997;-89
2022/01/27 15:44:16;;;;;;;;;;;4.90;99.90;;;;;;4967998;28;19962;-88